createdAt,value
2017-09-19T00:01:33.803Z,6.07
2017-09-19T00:04:01.299Z,3.87
2017-09-19T00:06:28.821Z,5.80
2017-09-19T00:08:56.316Z,8.80
2017-09-19T00:11:23.815Z,6.87
2017-09-19T00:13:52.092Z,5.57
2017-09-19T00:16:20.355Z,6.60
2017-09-19T00:18:47.872Z,8.03
2017-09-19T00:21:15.372Z,4.80
2017-09-19T00:23:42.895Z,14.90
2017-09-19T00:26:10.387Z,7.30
2017-09-19T00:28:37.903Z,7.57
2017-09-19T00:31:05.395Z,6.80
2017-09-19T00:33:32.912Z,4.50
2017-09-19T00:36:00.411Z,6.50
2017-09-19T00:38:27.921Z,4.70
2017-09-19T00:40:55.420Z,5.30
2017-09-19T00:43:22.934Z,6.13
2017-09-19T00:45:50.427Z,6.80
2017-09-19T00:48:17.936Z,5.70
2017-09-19T00:50:45.440Z,5.70
2017-09-19T00:53:12.951Z,8.50
2017-09-19T00:55:40.481Z,7.63
2017-09-19T00:58:07.992Z,6.80
2017-09-19T01:00:35.491Z,7.20
2017-09-19T01:03:02.988Z,8.77
2017-09-19T01:05:30.502Z,7.50
2017-09-19T01:07:57.999Z,5.83
2017-09-19T01:10:25.520Z,5.00
2017-09-19T01:12:53.020Z,7.10
2017-09-19T01:15:20.540Z,4.87
2017-09-19T01:17:48.299Z,5.53
2017-09-19T01:20:15.812Z,5.90
2017-09-19T01:22:43.316Z,4.30
2017-09-19T01:25:10.823Z,9.23
2017-09-19T01:27:38.325Z,6.93
2017-09-19T01:30:05.844Z,6.23
2017-09-19T01:32:33.343Z,6.23
2017-09-19T01:35:00.857Z,8.43
2017-09-19T01:37:28.359Z,6.37
2017-09-19T01:39:55.870Z,4.63
2017-09-19T01:42:23.370Z,7.20
2017-09-19T01:44:50.902Z,5.50
2017-09-19T01:47:18.808Z,7.77
2017-09-19T01:49:46.307Z,6.37
2017-09-19T01:52:13.823Z,8.33
2017-09-19T01:54:41.350Z,5.07
2017-09-19T01:57:08.853Z,5.90
2017-09-19T01:59:37.115Z,4.30
2017-09-19T02:02:04.628Z,5.73
2017-09-19T02:04:32.123Z,6.87
2017-09-19T02:06:59.648Z,11.17
2017-09-19T02:09:27.147Z,4.77
2017-09-19T02:11:54.669Z,4.90
2017-09-19T02:14:22.159Z,7.37
2017-09-19T02:16:49.671Z,4.53
2017-09-19T02:19:17.169Z,5.40
2017-09-19T02:21:44.683Z,8.13
2017-09-19T02:24:12.174Z,6.43
2017-09-19T02:29:14.463Z,4.13
2017-09-19T02:31:41.976Z,4.83
2017-09-19T02:34:09.474Z,3.53
2017-09-19T02:36:37.008Z,5.03
2017-09-19T02:39:04.517Z,5.97
2017-09-19T02:41:32.016Z,9.40
2017-09-19T02:43:59.532Z,6.70
2017-09-19T02:46:27.037Z,8.60
2017-09-19T02:48:54.547Z,4.10
2017-09-19T02:51:22.039Z,3.97
2017-09-19T02:53:49.867Z,8.57
2017-09-19T02:56:17.367Z,5.70
2017-09-19T02:58:44.880Z,3.80
2017-09-19T03:01:12.378Z,4.50
2017-09-19T03:03:39.886Z,5.83
2017-09-19T03:06:07.393Z,5.30
2017-09-19T03:08:34.914Z,7.53
2017-09-19T03:11:02.412Z,5.60
2017-09-19T03:13:29.919Z,5.17
2017-09-19T03:15:57.411Z,6.93
2017-09-19T03:18:25.692Z,5.50
2017-09-19T03:20:53.957Z,5.67
2017-09-19T03:23:22.242Z,5.13
2017-09-19T03:25:50.503Z,9.13
2017-09-19T03:28:18.000Z,7.23
2017-09-19T03:30:45.512Z,7.57
2017-09-19T03:33:13.007Z,5.87
2017-09-19T03:35:40.527Z,11.33
2017-09-19T03:38:08.162Z,7.50
2017-09-19T03:40:35.727Z,6.97
2017-09-19T03:43:03.228Z,9.87
2017-09-19T03:45:31.513Z,11.17
2017-09-19T03:47:59.011Z,12.63
2017-09-19T03:50:26.532Z,11.83
2017-09-19T03:52:54.032Z,10.80
2017-09-19T03:55:21.583Z,14.30
2017-09-19T03:57:49.071Z,16.80
2017-09-19T04:00:16.590Z,20.17
2017-09-19T04:02:44.092Z,24.60
2017-09-19T04:05:11.619Z,22.73
2017-09-19T04:07:39.126Z,20.53
2017-09-19T04:10:07.405Z,22.00
2017-09-19T04:12:35.667Z,18.00
2017-09-19T04:15:03.943Z,17.90
2017-09-19T04:17:32.232Z,24.13
2017-09-19T04:20:00.498Z,26.63
2017-09-19T04:22:28.784Z,24.10
2017-09-19T04:24:57.543Z,24.10
2017-09-19T04:27:25.070Z,23.43
2017-09-19T04:29:52.576Z,21.97
2017-09-19T04:32:20.859Z,26.33
2017-09-19T04:34:49.131Z,28.17
2017-09-19T04:37:17.407Z,28.73
2017-09-19T04:39:45.676Z,25.43
2017-09-19T04:42:13.958Z,25.63
2017-09-19T04:44:42.235Z,28.27
2017-09-19T04:47:10.519Z,26.23
2017-09-19T04:49:38.788Z,25.47
2017-09-19T04:52:07.068Z,29.50
2017-09-19T04:54:35.339Z,24.03
2017-09-19T04:57:03.627Z,29.13
2017-09-19T04:59:31.131Z,25.90
2017-09-19T05:01:58.634Z,24.37
2017-09-19T05:04:26.919Z,24.43
2017-09-19T05:06:55.191Z,24.37
2017-09-19T05:09:22.719Z,22.50
2017-09-19T05:11:50.224Z,22.70
2017-09-19T05:14:17.743Z,23.90
2017-09-19T05:16:45.239Z,23.40
2017-09-19T05:19:12.756Z,19.17
2017-09-19T05:21:40.255Z,23.47
2017-09-19T05:24:07.771Z,18.80
2017-09-19T05:26:35.291Z,23.37
2017-09-19T05:29:02.828Z,18.40
2017-09-19T05:31:30.332Z,15.90
2017-09-19T05:33:57.846Z,16.80
2017-09-19T05:36:25.347Z,17.03
2017-09-19T05:38:52.879Z,14.77
2017-09-19T05:41:20.382Z,13.43
2017-09-19T05:43:47.879Z,14.30
2017-09-19T05:46:15.396Z,16.20
2017-09-19T05:48:42.895Z,14.20
2017-09-19T05:51:10.415Z,20.97
2017-09-19T05:53:37.918Z,12.33
2017-09-19T05:56:05.438Z,11.63
2017-09-19T05:58:33.703Z,14.13
2017-09-19T06:01:01.210Z,11.23
2017-09-19T06:03:28.727Z,11.00
2017-09-19T06:05:57.637Z,11.13
2017-09-19T06:08:25.139Z,13.13
2017-09-19T06:10:52.635Z,9.57
2017-09-19T06:13:20.923Z,12.77
2017-09-19T06:15:49.191Z,13.17
2017-09-19T06:18:17.477Z,11.57
2017-09-19T06:20:45.735Z,9.07
2017-09-19T06:23:13.247Z,10.10
2017-09-19T06:25:40.739Z,9.23
2017-09-19T06:28:08.251Z,12.77
2017-09-19T06:30:35.746Z,8.97
2017-09-19T06:33:03.271Z,8.73
2017-09-19T06:35:30.775Z,10.20
2017-09-19T06:37:58.291Z,7.87
2017-09-19T06:40:25.808Z,7.53
2017-09-19T06:42:54.092Z,9.23
2017-09-19T06:45:22.380Z,7.47
2017-09-19T06:47:50.635Z,11.27
2017-09-19T06:50:18.918Z,8.10
2017-09-19T06:52:47.189Z,9.80
2017-09-19T06:55:15.475Z,6.77
2017-09-19T06:57:43.739Z,9.40
2017-09-19T07:00:12.028Z,8.20
2017-09-19T07:02:39.536Z,9.17
2017-09-19T07:05:07.048Z,9.83
2017-09-19T07:07:34.544Z,8.90
2017-09-19T07:10:02.055Z,9.30
2017-09-19T07:12:30.323Z,10.93
2017-09-19T07:14:58.941Z,10.97
2017-09-19T07:17:26.440Z,8.70
2017-09-19T07:19:53.951Z,9.27
2017-09-19T07:22:21.448Z,9.37
2017-09-19T07:24:48.985Z,13.10
2017-09-19T07:27:16.482Z,10.83
2017-09-19T07:29:43.987Z,7.77
2017-09-19T07:32:11.515Z,7.77
2017-09-19T07:34:39.803Z,8.80
2017-09-19T07:37:07.961Z,10.30
2017-09-19T07:39:36.231Z,7.27
2017-09-19T07:42:04.510Z,8.73
2017-09-19T07:44:32.771Z,9.30
2017-09-19T07:47:00.280Z,9.17
2017-09-19T07:49:27.779Z,7.40
2017-09-19T07:51:55.296Z,8.00
2017-09-19T07:54:22.787Z,6.90
2017-09-19T07:56:50.307Z,5.87
2017-09-19T07:59:17.803Z,9.77
2017-09-19T08:01:45.315Z,9.33
2017-09-19T08:04:12.829Z,9.27
2017-09-19T08:06:40.367Z,11.80
2017-09-19T08:09:07.863Z,6.20
2017-09-19T08:11:36.138Z,8.37
2017-09-19T08:14:04.432Z,7.07
2017-09-19T08:16:31.939Z,6.77
2017-09-19T08:18:59.455Z,8.07
2017-09-19T08:21:26.968Z,8.20
2017-09-19T08:23:54.484Z,9.27
2017-09-19T08:26:21.982Z,6.50
2017-09-19T08:28:49.504Z,9.77
2017-09-19T08:31:17.016Z,7.70
2017-09-19T08:33:44.546Z,7.80
2017-09-19T08:36:12.043Z,6.00
2017-09-19T08:38:40.314Z,8.17
2017-09-19T08:41:08.608Z,7.37
2017-09-19T08:43:36.120Z,10.00
2017-09-19T08:46:03.652Z,7.73
2017-09-19T08:48:31.165Z,10.37
2017-09-19T08:50:59.452Z,8.07
2017-09-19T08:53:27.716Z,9.50
2017-09-19T08:55:56.008Z,6.73
2017-09-19T08:58:24.276Z,7.40
2017-09-19T09:00:52.559Z,6.10
2017-09-19T09:03:20.828Z,8.87
2017-09-19T09:05:49.127Z,7.40
2017-09-19T09:08:16.631Z,6.17
2017-09-19T09:10:44.135Z,7.87
2017-09-19T09:13:11.652Z,6.50
2017-09-19T09:15:39.151Z,7.70
2017-09-19T09:18:06.672Z,9.70
2017-09-19T09:20:34.176Z,7.20
2017-09-19T09:23:01.703Z,9.43
2017-09-19T09:25:29.976Z,9.17
2017-09-19T09:27:58.264Z,8.20
2017-09-19T09:30:26.534Z,9.33
2017-09-19T09:32:54.820Z,8.50
2017-09-19T09:35:23.093Z,8.70
2017-09-19T09:37:51.379Z,8.30
2017-09-19T09:40:18.878Z,9.23
2017-09-19T09:42:46.391Z,8.63
2017-09-19T09:45:14.669Z,12.87
2017-09-19T09:47:42.953Z,10.87
2017-09-19T09:50:10.488Z,8.37
2017-09-19T09:52:38.784Z,8.90
2017-09-19T09:55:06.292Z,12.23
2017-09-19T09:57:33.812Z,10.23
2017-09-19T10:00:01.311Z,8.90
2017-09-19T10:02:28.854Z,8.03
2017-09-19T10:04:56.360Z,10.37
2017-09-19T10:07:24.636Z,8.23
2017-09-19T10:09:52.928Z,12.27
2017-09-19T10:12:20.427Z,10.60
2017-09-19T10:14:47.955Z,16.27
2017-09-19T10:17:15.459Z,13.73
2017-09-19T10:19:42.977Z,9.47
2017-09-19T10:22:10.476Z,9.07
2017-09-19T10:24:37.998Z,9.00
2017-09-19T10:27:05.508Z,10.57
2017-09-19T10:29:33.791Z,9.63
2017-09-19T10:32:02.059Z,9.43
2017-09-19T10:34:29.570Z,9.67
2017-09-19T10:36:57.071Z,7.33
2017-09-19T10:39:24.591Z,8.43
2017-09-19T10:41:52.340Z,7.10
2017-09-19T10:44:19.855Z,5.43
2017-09-19T10:46:47.352Z,6.47
2017-09-19T10:49:14.873Z,8.47
2017-09-19T10:51:43.147Z,15.03
2017-09-19T10:54:10.668Z,7.40
2017-09-19T10:56:38.275Z,8.17
2017-09-19T10:59:05.878Z,7.33
2017-09-19T11:01:33.475Z,6.83
2017-09-19T11:04:01.766Z,9.00
2017-09-19T11:06:30.135Z,12.40
2017-09-19T11:08:58.415Z,7.13
2017-09-19T11:11:25.935Z,7.57
2017-09-19T11:13:53.439Z,6.23
2017-09-19T11:16:21.723Z,8.27
2017-09-19T11:18:49.996Z,7.27
2017-09-19T11:21:18.283Z,10.40
2017-09-19T11:23:45.792Z,10.27
2017-09-19T11:26:13.307Z,6.70
2017-09-19T11:28:40.802Z,9.37
2017-09-19T11:33:42.186Z,8.13
2017-09-19T11:36:09.711Z,9.20
2017-09-19T11:38:37.207Z,8.03
2017-09-19T11:41:04.732Z,7.57
2017-09-19T11:43:32.235Z,7.90
2017-09-19T11:46:00.520Z,7.03
2017-09-19T11:48:28.797Z,8.97
2017-09-19T11:50:57.082Z,7.20
2017-09-19T11:53:24.592Z,8.23
2017-09-19T11:55:52.111Z,9.30
2017-09-19T11:58:19.615Z,8.30
2017-09-19T12:00:47.139Z,7.63
2017-09-19T12:03:14.635Z,8.83
2017-09-19T12:05:42.140Z,8.77
2017-09-19T12:08:09.658Z,10.43
2017-09-19T12:10:37.179Z,10.33
2017-09-19T12:13:05.641Z,18.30
2017-09-19T12:15:33.175Z,10.27
2017-09-19T12:18:00.711Z,8.03
2017-09-19T12:20:28.211Z,10.47
2017-09-19T12:22:55.723Z,11.60
2017-09-19T12:25:23.227Z,13.13
2017-09-19T12:27:50.751Z,15.13
2017-09-19T12:30:18.247Z,8.83
2017-09-19T12:32:46.223Z,7.80
2017-09-19T12:35:13.723Z,8.13
2017-09-19T12:37:41.242Z,8.20
2017-09-19T12:40:08.737Z,8.10
2017-09-19T12:42:36.252Z,6.90
2017-09-19T12:45:03.756Z,10.93
2017-09-19T12:47:31.271Z,7.80
2017-09-19T12:49:58.776Z,8.60
2017-09-19T12:52:26.539Z,10.33
2017-09-19T12:54:54.034Z,8.40
2017-09-19T12:57:21.560Z,8.83
2017-09-19T12:59:49.062Z,7.90
2017-09-19T13:02:16.592Z,6.53
2017-09-19T13:04:45.209Z,7.07
2017-09-19T13:07:12.722Z,6.43
2017-09-19T13:09:40.223Z,8.37
2017-09-19T13:12:07.784Z,6.20
2017-09-19T13:14:35.291Z,6.33
2017-09-19T13:17:02.815Z,5.87
2017-09-19T13:19:30.337Z,6.53
2017-09-19T13:21:57.925Z,7.17
2017-09-19T13:24:25.484Z,8.10
2017-09-19T13:26:53.057Z,7.50
2017-09-19T13:29:20.611Z,6.70
2017-09-19T13:32:00.431Z,6.40
2017-09-19T13:34:29.891Z,7.80
2017-09-19T13:36:57.416Z,7.23
2017-09-19T13:39:24.921Z,6.50
2017-09-19T13:41:53.213Z,5.67
2017-09-19T13:44:21.482Z,9.40
2017-09-19T13:46:49.747Z,5.90
2017-09-19T13:49:17.262Z,7.97
2017-09-19T13:51:44.773Z,6.33
2017-09-19T13:54:13.064Z,10.63
2017-09-19T13:56:40.570Z,7.30
2017-09-19T13:59:08.087Z,8.43
2017-09-19T14:01:35.592Z,7.03
2017-09-19T14:04:03.107Z,6.50
2017-09-19T14:06:30.603Z,5.83
2017-09-19T14:08:58.130Z,6.87
2017-09-19T14:11:25.630Z,7.37
2017-09-19T14:13:53.164Z,6.70
2017-09-19T14:16:20.660Z,6.60
2017-09-19T14:18:48.163Z,6.53
2017-09-19T14:21:15.676Z,6.20
2017-09-19T14:23:43.171Z,5.27
2017-09-19T14:26:10.696Z,7.40
2017-09-19T14:28:38.967Z,7.80
2017-09-19T14:31:06.501Z,3.97
2017-09-19T14:33:34.768Z,5.10
2017-09-19T14:36:02.283Z,4.40
2017-09-19T14:38:29.816Z,6.43
2017-09-19T14:40:57.434Z,9.40
2017-09-19T14:43:24.973Z,6.03
2017-09-19T14:45:53.488Z,4.70
2017-09-19T14:48:21.884Z,3.27
2017-09-19T14:50:49.637Z,3.73
2017-09-19T14:53:17.159Z,3.10
2017-09-19T14:55:44.680Z,2.80
2017-09-19T14:58:12.951Z,5.30
2017-09-19T15:00:40.468Z,3.17
2017-09-19T15:03:07.966Z,2.17
2017-09-19T15:05:35.484Z,6.17
2017-09-19T15:08:02.983Z,1.70
2017-09-19T15:10:30.494Z,1.90
2017-09-19T15:12:57.999Z,2.53
2017-09-19T15:15:25.861Z,3.90
2017-09-19T15:17:53.380Z,1.80
2017-09-19T15:20:20.883Z,2.40
2017-09-19T15:22:48.431Z,2.27
2017-09-19T15:25:15.931Z,2.20
2017-09-19T15:27:43.443Z,2.90
2017-09-19T15:30:10.944Z,1.70
2017-09-19T15:32:38.462Z,2.57
2017-09-19T15:35:05.959Z,3.13
2017-09-19T15:37:33.471Z,2.50
2017-09-19T15:40:00.967Z,3.10
2017-09-19T15:42:29.243Z,4.17
2017-09-19T15:44:57.507Z,2.70
2017-09-19T15:47:25.791Z,4.27
2017-09-19T15:49:54.052Z,4.33
2017-09-19T15:52:21.565Z,3.93
2017-09-19T15:54:49.188Z,2.77
2017-09-19T15:57:16.783Z,4.33
2017-09-19T15:59:44.389Z,3.27
2017-09-19T16:02:12.734Z,4.33
2017-09-19T16:04:40.309Z,3.10
2017-09-19T16:07:07.840Z,2.80
2017-09-19T16:09:35.335Z,2.80
2017-09-19T16:12:02.867Z,2.20
2017-09-19T16:14:30.368Z,2.63
2017-09-19T16:16:58.627Z,4.00
2017-09-19T16:19:26.136Z,3.30
2017-09-19T16:21:53.640Z,3.37
2017-09-19T16:24:21.164Z,4.07
2017-09-19T16:26:48.676Z,10.63
2017-09-19T16:29:16.967Z,87.90
2017-09-19T16:31:45.239Z,233.97
2017-09-19T16:34:13.531Z,86.03
2017-09-19T16:36:41.044Z,29.10
2017-09-19T16:39:08.584Z,24.53
2017-09-19T16:41:36.860Z,14.83
2017-09-19T16:44:04.374Z,7.53
2017-09-19T16:46:31.882Z,6.90
2017-09-19T16:48:59.403Z,7.47
2017-09-19T16:51:26.899Z,8.00
2017-09-19T16:53:54.421Z,14.80
2017-09-19T16:56:21.920Z,8.30
2017-09-19T16:58:49.436Z,14.50
2017-09-19T17:01:16.931Z,9.93
2017-09-19T17:03:44.443Z,7.00
2017-09-19T17:06:11.939Z,8.03
2017-09-19T17:08:39.489Z,7.23
2017-09-19T17:11:07.037Z,13.40
2017-09-19T17:13:34.551Z,8.60
2017-09-19T17:16:02.874Z,8.60
2017-09-19T17:18:30.454Z,7.87
2017-09-19T17:20:57.967Z,6.23
2017-09-19T17:23:25.468Z,6.47
2017-09-19T17:25:52.985Z,6.10
2017-09-19T17:28:20.481Z,9.20
2017-09-19T17:30:47.992Z,5.23
2017-09-19T17:33:16.246Z,7.30
2017-09-19T17:35:43.761Z,7.40
2017-09-19T17:38:11.260Z,7.40
2017-09-19T17:40:38.775Z,6.00
2017-09-19T17:43:06.275Z,4.10
2017-09-19T17:45:35.397Z,3.77
2017-09-19T17:48:03.660Z,4.73
2017-09-19T17:50:31.939Z,6.10
2017-09-19T17:53:00.199Z,3.03
2017-09-19T17:55:27.716Z,3.33
2017-09-19T17:57:55.216Z,6.77
2017-09-19T18:00:23.504Z,3.50
2017-09-19T18:02:51.763Z,6.00
2017-09-19T18:05:19.288Z,4.80
2017-09-19T18:07:46.787Z,4.93
2017-09-19T18:10:14.316Z,3.33
2017-09-19T18:12:41.815Z,5.07
2017-09-19T18:15:10.075Z,3.00
2017-09-19T18:17:37.592Z,5.60
2017-09-19T18:20:05.109Z,10.90
2017-09-19T18:22:33.390Z,8.60
2017-09-19T18:25:00.913Z,9.00
2017-09-19T18:27:28.452Z,7.73
2017-09-19T18:29:55.963Z,7.00
2017-09-19T18:32:24.253Z,10.17
2017-09-19T18:34:51.756Z,8.57
2017-09-19T18:37:19.283Z,12.60
2017-09-19T18:39:46.790Z,10.03
2017-09-19T18:42:14.402Z,7.43
2017-09-19T18:44:41.907Z,6.50
2017-09-19T18:47:09.420Z,5.83
2017-09-19T18:49:36.924Z,6.60
2017-09-19T18:52:04.439Z,4.60
2017-09-19T18:54:31.938Z,7.70
2017-09-19T18:56:59.446Z,6.77
2017-09-19T18:59:26.940Z,5.70
2017-09-19T19:01:54.460Z,6.50
2017-09-19T19:04:21.963Z,8.27
2017-09-19T19:06:49.479Z,6.07
2017-09-19T19:09:16.975Z,6.20
2017-09-19T19:11:44.511Z,11.03
2017-09-19T19:14:12.003Z,4.70
2017-09-19T19:16:39.495Z,4.97
2017-09-19T19:19:07.008Z,6.33
2017-09-19T19:21:34.513Z,4.03
2017-09-19T19:24:02.029Z,5.37
2017-09-19T19:26:29.524Z,5.93
2017-09-19T19:28:57.039Z,6.83
2017-09-19T19:31:24.535Z,4.83
2017-09-19T19:33:52.833Z,3.97
2017-09-19T19:36:20.368Z,5.27
2017-09-19T19:38:48.642Z,6.70
2017-09-19T19:41:16.908Z,8.30
2017-09-19T19:43:45.774Z,6.50
2017-09-19T19:46:13.292Z,7.50
2017-09-19T19:48:40.815Z,5.10
2017-09-19T19:51:09.082Z,4.77
2017-09-19T19:53:36.595Z,5.40
2017-09-19T19:56:04.092Z,6.30
2017-09-19T19:58:31.606Z,5.47
2017-09-19T20:00:59.099Z,5.20
2017-09-19T20:03:26.615Z,6.40
2017-09-19T20:05:54.117Z,5.10
2017-09-19T20:08:21.643Z,5.63
2017-09-19T20:10:49.143Z,7.13
2017-09-19T20:13:16.657Z,6.80
2017-09-19T20:15:44.179Z,10.87
2017-09-19T20:18:12.441Z,4.83
2017-09-19T20:20:40.720Z,4.63
2017-09-19T20:23:08.992Z,6.10
2017-09-19T20:25:37.277Z,7.67
2017-09-19T20:28:05.538Z,7.53
2017-09-19T20:30:33.051Z,5.33
2017-09-19T20:33:00.544Z,6.30
2017-09-19T20:35:28.060Z,6.30
2017-09-19T20:37:55.551Z,6.93
2017-09-19T20:40:23.072Z,12.37
2017-09-19T20:42:50.571Z,5.83
2017-09-19T20:45:18.083Z,8.20
2017-09-19T20:47:45.579Z,9.20
2017-09-19T20:50:13.090Z,11.43
2017-09-19T20:52:40.587Z,7.27
2017-09-19T20:55:08.100Z,8.57
2017-09-19T20:57:36.365Z,7.90
2017-09-19T21:00:04.650Z,19.90
2017-09-19T21:02:32.918Z,8.50
2017-09-19T21:05:06.866Z,26.20
2017-09-19T21:07:40.074Z,12.63
2017-09-19T21:13:06.191Z,16.17
2017-09-19T21:15:39.288Z,16.00
2017-09-19T21:18:12.383Z,9.00
2017-09-19T21:20:39.895Z,21.10
2017-09-19T21:23:08.167Z,25.53
2017-09-19T21:25:36.447Z,6.93
2017-09-19T21:28:04.707Z,7.93
2017-09-19T21:30:32.202Z,7.20
2017-09-19T21:32:59.720Z,6.00
2017-09-19T21:35:27.215Z,7.33
2017-09-19T21:37:54.730Z,7.73
2017-09-19T21:40:22.232Z,6.67
2017-09-19T21:42:49.747Z,6.27
2017-09-19T21:45:17.254Z,5.27
2017-09-19T21:47:44.767Z,6.23
2017-09-19T21:50:12.271Z,6.20
2017-09-19T21:52:39.788Z,6.47
2017-09-19T21:55:07.287Z,5.33
2017-09-19T21:57:34.800Z,5.33
2017-09-19T22:00:02.305Z,6.47
2017-09-19T22:02:29.823Z,5.90
2017-09-19T22:04:57.325Z,7.10
2017-09-19T22:07:24.834Z,7.57
2017-09-19T22:09:52.340Z,5.73
2017-09-19T22:12:19.851Z,8.03
2017-09-19T22:14:47.348Z,6.20
2017-09-19T22:17:14.852Z,6.70
2017-09-19T22:19:42.386Z,5.87
2017-09-19T22:22:09.887Z,6.13
2017-09-19T22:24:37.398Z,6.00
2017-09-19T22:27:04.901Z,6.60
2017-09-19T22:29:32.423Z,5.80
2017-09-19T22:31:59.930Z,8.00
2017-09-19T22:34:28.207Z,6.90
2017-09-19T22:36:56.487Z,8.13
2017-09-19T22:39:24.766Z,7.83
2017-09-19T22:41:53.031Z,6.90
2017-09-19T22:44:21.319Z,6.07
2017-09-19T22:46:49.579Z,5.67
2017-09-19T22:49:17.863Z,8.00
2017-09-19T22:51:46.133Z,7.40
2017-09-19T22:54:14.412Z,9.03
2017-09-19T22:56:42.679Z,9.10
2017-09-19T22:59:10.226Z,10.03
2017-09-19T23:01:37.723Z,8.80
2017-09-19T23:04:05.239Z,8.10
2017-09-19T23:06:32.744Z,11.27
2017-09-19T23:09:00.296Z,10.17
2017-09-19T23:11:28.555Z,11.53
2017-09-19T23:13:56.860Z,11.77
2017-09-19T23:16:24.364Z,14.43
2017-09-19T23:18:51.863Z,12.73
2017-09-19T23:21:19.382Z,13.40
2017-09-19T23:23:46.896Z,13.20
2017-09-19T23:26:14.410Z,14.57
2017-09-19T23:28:41.916Z,13.90
2017-09-19T23:31:09.431Z,14.37
2017-09-19T23:33:36.932Z,9.60
2017-09-19T23:36:04.453Z,15.00
2017-09-19T23:38:32.724Z,13.80
2017-09-19T23:43:34.836Z,14.30
2017-09-19T23:46:02.363Z,13.63
2017-09-19T23:48:30.651Z,15.97
2017-09-19T23:50:58.935Z,13.93
2017-09-19T23:53:27.203Z,18.83
2017-09-19T23:55:55.488Z,18.50
2017-09-19T23:58:22.992Z,22.33
